createdAt,value
2022-11-27T00:00:12.000Z,90.17
2022-11-27T00:02:40.896Z,89.13
2022-11-27T00:05:10.712Z,89.69
2022-11-27T00:07:38.472Z,89.89
2022-11-27T00:10:08.016Z,89.34
2022-11-27T00:12:35.939Z,89.37
2022-11-27T00:15:04.230Z,89.58
2022-11-27T00:17:32.014Z,89.62
2022-11-27T00:19:59.673Z,89.58
2022-11-27T00:22:28.891Z,89.60
2022-11-27T00:24:56.536Z,89.27
2022-11-27T00:27:24.236Z,89.57
2022-11-27T00:29:51.950Z,89.30
2022-11-27T00:32:19.601Z,89.28
2022-11-27T00:34:47.250Z,89.02
2022-11-27T00:37:15.540Z,89.41
2022-11-27T00:39:44.419Z,89.53
2022-11-27T00:42:12.023Z,89.29
2022-11-27T00:44:39.957Z,89.91
2022-11-27T00:47:07.842Z,89.60
2022-11-27T00:49:35.584Z,89.22
2022-11-27T00:52:03.225Z,89.39
2022-11-27T00:54:30.823Z,89.36
2022-11-27T00:56:59.873Z,90.09
2022-11-27T00:59:27.567Z,89.84
2022-11-27T01:01:55.435Z,89.65
2022-11-27T01:04:23.084Z,89.69
2022-11-27T01:06:50.885Z,89.88
2022-11-27T01:09:18.636Z,89.73
2022-11-27T01:11:46.277Z,90.00
2022-11-27T01:14:18.132Z,89.46
2022-11-27T01:16:46.285Z,89.83
2022-11-27T01:19:15.209Z,89.52
2022-11-27T01:21:42.909Z,89.54
2022-11-27T01:24:13.054Z,90.17
2022-11-27T01:26:40.942Z,89.72
2022-11-27T01:29:08.792Z,89.92
2022-11-27T01:31:37.860Z,89.44
2022-11-27T01:34:07.836Z,90.03
2022-11-27T01:36:36.544Z,89.94
2022-11-27T01:39:04.948Z,89.93
2022-11-27T01:41:34.024Z,89.66
2022-11-27T01:44:03.744Z,90.07
2022-11-27T01:46:39.266Z,89.71
2022-11-27T01:49:23.084Z,89.52
2022-11-27T01:51:55.847Z,89.59
2022-11-27T01:54:28.223Z,89.73
2022-11-27T01:57:00.422Z,90.07
2022-11-27T01:59:28.085Z,90.00
2022-11-27T02:01:57.173Z,89.92
2022-11-27T02:04:24.883Z,89.97
2022-11-27T02:06:52.772Z,90.27
2022-11-27T02:09:20.438Z,89.81
2022-11-27T02:11:56.909Z,89.90
2022-11-27T02:14:33.203Z,89.67
2022-11-27T02:17:10.188Z,89.83
2022-11-27T02:19:54.606Z,89.32
2022-11-27T02:22:35.750Z,89.42
2022-11-27T02:25:14.632Z,89.24
2022-11-27T02:27:58.583Z,89.18
2022-11-27T02:30:28.980Z,88.85
2022-11-27T02:33:00.081Z,89.40
2022-11-27T02:35:32.559Z,89.22
2022-11-27T02:38:03.446Z,89.33
2022-11-27T02:40:35.448Z,89.17
2022-11-27T02:43:08.879Z,89.02
2022-11-27T02:45:41.597Z,88.78
2022-11-27T02:48:10.803Z,89.16
2022-11-27T02:50:40.825Z,88.68
2022-11-27T02:53:13.241Z,88.45
2022-11-27T02:55:42.971Z,88.70
2022-11-27T02:58:16.827Z,88.24
2022-11-27T03:00:48.361Z,88.66
2022-11-27T03:03:22.147Z,87.90
2022-11-27T03:05:53.174Z,88.03
2022-11-27T03:08:26.688Z,87.40
2022-11-27T03:11:01.917Z,87.43
2022-11-27T03:13:31.449Z,87.49
2022-11-27T03:16:13.048Z,87.47
2022-11-27T03:18:45.160Z,87.58
2022-11-27T03:21:26.972Z,88.07
2022-11-27T03:23:54.856Z,87.78
2022-11-27T03:26:22.516Z,87.85
2022-11-27T03:28:53.069Z,87.63
2022-11-27T03:31:23.738Z,88.34
2022-11-27T03:33:52.211Z,87.19
2022-11-27T03:36:22.094Z,87.18
2022-11-27T03:38:52.576Z,87.52
2022-11-27T03:41:25.728Z,87.25
2022-11-27T03:44:01.680Z,87.74
2022-11-27T03:46:41.015Z,87.09
2022-11-27T03:49:19.369Z,87.10
2022-11-27T03:51:55.286Z,86.79
2022-11-27T03:54:35.398Z,86.84
2022-11-27T03:57:11.670Z,86.94
2022-11-27T03:59:44.151Z,87.00
2022-11-27T04:02:15.051Z,87.42
2022-11-27T04:04:43.061Z,87.26
2022-11-27T04:07:16.831Z,86.74
2022-11-27T04:09:44.680Z,87.24
2022-11-27T04:12:12.340Z,87.23
2022-11-27T04:14:40.266Z,86.88
2022-11-27T04:17:09.029Z,86.85
2022-11-27T04:19:38.056Z,86.74
2022-11-27T04:22:05.696Z,87.58
2022-11-27T04:24:33.353Z,87.09
2022-11-27T04:27:00.956Z,86.96
2022-11-27T04:29:28.604Z,87.52
2022-11-27T04:31:56.244Z,86.88
2022-11-27T04:34:24.296Z,86.30
2022-11-27T04:36:53.241Z,86.43
2022-11-27T04:39:20.905Z,87.16
2022-11-27T04:41:48.896Z,87.63
2022-11-27T04:44:16.776Z,87.27
2022-11-27T04:46:44.519Z,87.46
2022-11-27T04:49:12.719Z,86.34
2022-11-27T04:51:40.359Z,86.74
2022-11-27T04:54:09.364Z,87.13
2022-11-27T04:56:37.057Z,86.95
2022-11-27T04:59:05.137Z,86.92
2022-11-27T05:01:33.044Z,86.98
2022-11-27T05:04:00.743Z,86.72
2022-11-27T05:06:28.440Z,87.29
2022-11-27T05:08:59.915Z,86.16
2022-11-27T05:11:30.592Z,86.68
2022-11-27T05:14:12.701Z,86.43
2022-11-27T05:16:40.441Z,86.92
2022-11-27T05:19:08.248Z,86.31
2022-11-27T05:21:35.912Z,85.80
2022-11-27T05:24:03.785Z,86.82
2022-11-27T05:26:32.950Z,86.36
2022-11-27T05:29:00.620Z,86.35
2022-11-27T05:31:28.706Z,86.06
2022-11-27T05:33:56.404Z,86.19
2022-11-27T05:36:24.023Z,86.09
2022-11-27T05:38:51.684Z,86.28
2022-11-27T05:41:19.462Z,86.75
2022-11-27T05:43:48.848Z,85.60
2022-11-27T05:46:19.652Z,85.33
2022-11-27T05:48:47.484Z,86.64
2022-11-27T05:51:15.109Z,85.91
2022-11-27T05:53:42.955Z,85.72
2022-11-27T05:56:12.336Z,86.46
2022-11-27T05:58:40.993Z,86.08
2022-11-27T06:01:10.611Z,85.78
2022-11-27T06:03:39.304Z,86.20
2022-11-27T06:06:08.380Z,85.22
2022-11-27T06:08:37.803Z,85.22
2022-11-27T06:11:08.454Z,85.97
2022-11-27T06:13:36.287Z,86.83
2022-11-27T06:16:11.830Z,86.09
2022-11-27T06:18:39.535Z,86.38
2022-11-27T06:21:08.883Z,86.63
2022-11-27T06:23:37.483Z,86.91
2022-11-27T06:26:12.863Z,85.39
2022-11-27T06:28:40.996Z,86.75
2022-11-27T06:31:17.283Z,86.43
2022-11-27T06:33:46.334Z,86.86
2022-11-27T06:36:14.468Z,87.08
2022-11-27T06:38:42.212Z,87.12
2022-11-27T06:41:12.366Z,87.43
2022-11-27T06:43:40.415Z,87.01
2022-11-27T06:46:12.361Z,87.68
2022-11-27T06:48:40.109Z,87.37
2022-11-27T06:51:08.967Z,87.11
2022-11-27T06:53:38.390Z,86.95
2022-11-27T06:56:07.056Z,87.40
2022-11-27T06:58:34.728Z,87.30
2022-11-27T07:01:04.411Z,86.56
2022-11-27T07:03:33.464Z,87.07
2022-11-27T07:06:01.570Z,87.27
2022-11-27T07:08:29.663Z,87.35
2022-11-27T07:11:02.494Z,87.49
2022-11-27T07:13:30.436Z,87.59
2022-11-27T07:16:01.019Z,87.19
2022-11-27T07:18:28.883Z,87.64
2022-11-27T07:20:58.236Z,87.26
2022-11-27T07:23:25.879Z,87.61
2022-11-27T07:25:53.569Z,87.86
2022-11-27T07:28:21.206Z,88.38
2022-11-27T07:30:55.768Z,87.61
2022-11-27T07:33:23.481Z,87.80
2022-11-27T07:35:51.272Z,87.84
2022-11-27T07:38:20.267Z,87.84
2022-11-27T07:40:47.960Z,87.93
2022-11-27T07:43:15.644Z,88.69
2022-11-27T07:45:43.312Z,88.47
2022-11-27T07:48:11.076Z,88.48
2022-11-27T07:50:40.404Z,89.00
2022-11-27T07:53:08.065Z,89.12
2022-11-27T07:55:38.928Z,88.90
2022-11-27T07:58:06.667Z,88.90
2022-11-27T08:00:34.548Z,88.86
2022-11-27T08:03:02.499Z,89.14
2022-11-27T08:05:30.195Z,88.91
2022-11-27T08:08:00.778Z,89.11
2022-11-27T08:10:28.811Z,89.39
2022-11-27T08:12:58.258Z,89.50
2022-11-27T08:15:27.054Z,89.33
2022-11-27T08:17:54.808Z,89.30
2022-11-27T08:20:22.690Z,89.46
2022-11-27T08:22:50.665Z,89.55
2022-11-27T08:25:19.004Z,89.46
2022-11-27T08:27:48.336Z,89.29
2022-11-27T08:30:17.621Z,89.50
2022-11-27T08:32:46.691Z,89.39
2022-11-27T08:35:14.396Z,89.63
2022-11-27T08:37:42.259Z,89.38
2022-11-27T08:40:10.747Z,89.30
2022-11-27T08:42:38.331Z,89.29
2022-11-27T08:45:06.629Z,89.42
2022-11-27T08:47:35.499Z,90.37
2022-11-27T08:50:03.177Z,89.70
2022-11-27T08:52:30.776Z,89.71
2022-11-27T08:54:59.133Z,89.52
2022-11-27T08:57:26.910Z,89.75
2022-11-27T08:59:54.534Z,89.51
2022-11-27T09:02:22.222Z,89.80
2022-11-27T09:04:51.366Z,89.54
2022-11-27T09:07:19.080Z,89.97
2022-11-27T09:09:46.856Z,89.63
2022-11-27T09:12:14.682Z,89.40
2022-11-27T09:14:42.716Z,89.68
2022-11-27T09:17:10.382Z,90.20
2022-11-27T09:19:38.033Z,89.84
2022-11-27T09:22:07.051Z,89.57
2022-11-27T09:24:34.711Z,89.92
2022-11-27T09:27:02.354Z,89.78
2022-11-27T09:29:30.077Z,89.51
2022-11-27T09:31:57.786Z,90.04
2022-11-27T09:34:25.435Z,89.58
2022-11-27T09:36:53.123Z,89.73
2022-11-27T09:39:22.756Z,89.58
2022-11-27T09:41:52.597Z,89.26
2022-11-27T09:44:32.521Z,89.58
2022-11-27T09:47:05.360Z,89.62
2022-11-27T09:49:41.522Z,89.52
2022-11-27T09:52:19.024Z,89.39
2022-11-27T09:54:54.971Z,89.52
2022-11-27T09:57:29.433Z,88.41
2022-11-27T09:59:59.602Z,89.66
2022-11-27T10:02:30.208Z,89.00
2022-11-27T10:05:15.972Z,88.67
2022-11-27T10:08:08.628Z,89.46
2022-11-27T10:10:46.711Z,89.64
2022-11-27T10:13:40.296Z,89.28
2022-11-27T10:16:20.086Z,89.14
2022-11-27T10:18:52.605Z,89.18
2022-11-27T10:21:28.626Z,89.30
2022-11-27T10:24:03.702Z,89.34
2022-11-27T10:26:37.909Z,88.61
2022-11-27T10:29:13.124Z,89.30
2022-11-27T10:31:46.497Z,88.77
2022-11-27T10:34:26.686Z,89.05
2022-11-27T10:36:56.478Z,89.14
2022-11-27T10:39:36.224Z,89.23
2022-11-27T10:42:11.067Z,89.15
2022-11-27T10:44:42.883Z,89.77
2022-11-27T10:47:14.399Z,88.64
2022-11-27T10:49:43.622Z,89.09
2022-11-27T10:52:15.308Z,89.34
2022-11-27T10:54:44.669Z,88.97
2022-11-27T10:57:37.478Z,88.88
2022-11-27T11:00:13.452Z,88.48
2022-11-27T11:02:41.467Z,89.33
2022-11-27T11:05:57.362Z,88.84
2022-11-27T11:08:17.786Z,88.83
2022-11-27T11:10:52.723Z,88.65
2022-11-27T11:13:22.513Z,88.12
2022-11-27T11:15:56.574Z,87.88
2022-11-27T11:18:25.987Z,87.84
2022-11-27T11:20:56.053Z,88.12
2022-11-27T11:23:31.831Z,88.24
2022-11-27T11:26:04.199Z,87.99
2022-11-27T11:28:39.704Z,88.11
2022-11-27T11:31:10.799Z,87.88
2022-11-27T11:33:49.073Z,88.01
2022-11-27T11:36:16.788Z,87.55
2022-11-27T11:38:47.463Z,86.66
2022-11-27T11:41:18.059Z,87.32
2022-11-27T11:43:57.870Z,86.90
2022-11-27T11:46:28.627Z,86.79
2022-11-27T11:49:02.053Z,87.46
2022-11-27T11:52:16.608Z,86.75
2022-11-27T11:54:50.739Z,86.67
2022-11-27T11:57:40.632Z,86.48
2022-11-27T12:00:13.987Z,86.81
2022-11-27T12:02:58.704Z,87.25
2022-11-27T12:05:37.115Z,86.75
2022-11-27T12:08:20.544Z,86.32
2022-11-27T12:10:58.906Z,86.76
2022-11-27T12:13:40.544Z,86.30
2022-11-27T12:16:18.565Z,86.12
2022-11-27T12:18:57.953Z,85.96
2022-11-27T12:21:37.395Z,86.52
2022-11-27T12:24:18.702Z,85.80
2022-11-27T12:27:06.606Z,86.35
2022-11-27T12:29:53.921Z,85.79
2022-11-27T12:32:34.837Z,86.37
2022-11-27T12:35:24.712Z,86.13
2022-11-27T12:38:01.541Z,86.59
2022-11-27T12:40:44.281Z,86.65
2022-11-27T12:43:22.772Z,86.55
2022-11-27T12:45:55.799Z,86.86
2022-11-27T12:48:29.308Z,86.84
2022-11-27T12:51:02.200Z,86.40
2022-11-27T12:53:36.107Z,86.58
2022-11-27T12:56:10.608Z,85.76
2022-11-27T12:58:42.173Z,86.31
2022-11-27T13:01:16.194Z,86.01
2022-11-27T13:03:58.845Z,86.46
2022-11-27T13:06:30.603Z,86.63
2022-11-27T13:09:02.981Z,86.58
2022-11-27T13:11:35.656Z,86.07
2022-11-27T13:14:08.141Z,86.29
2022-11-27T13:16:40.914Z,86.45
2022-11-27T13:19:17.904Z,86.55
2022-11-27T13:21:47.326Z,87.08
2022-11-27T13:24:15.524Z,87.10
2022-11-27T13:26:44.618Z,85.44
2022-11-27T13:29:20.423Z,85.88
2022-11-27T13:31:54.253Z,87.25
2022-11-27T13:34:27.402Z,86.92
2022-11-27T13:37:01.604Z,86.17
2022-11-27T13:39:31.766Z,87.40
2022-11-27T13:42:07.285Z,86.37
2022-11-27T13:44:39.073Z,86.48
2022-11-27T13:47:11.603Z,86.87
2022-11-27T13:49:43.014Z,87.39
2022-11-27T13:52:14.593Z,87.42
2022-11-27T13:54:53.683Z,87.65
2022-11-27T13:57:21.938Z,88.27
2022-11-27T13:59:57.991Z,88.07
2022-11-27T14:02:26.057Z,87.76
2022-11-27T14:04:56.614Z,87.97
2022-11-27T14:07:35.544Z,87.89
2022-11-27T14:10:09.744Z,88.07
2022-11-27T14:12:38.440Z,87.58
2022-11-27T14:15:11.156Z,87.81
2022-11-27T14:17:41.828Z,88.16
2022-11-27T14:20:27.721Z,88.40
2022-11-27T14:23:11.671Z,87.92
2022-11-27T14:25:40.342Z,88.06
2022-11-27T14:28:15.626Z,88.09
2022-11-27T14:30:47.476Z,88.60
2022-11-27T14:33:20.262Z,88.29
2022-11-27T14:35:54.008Z,88.56
2022-11-27T14:38:22.645Z,88.55
2022-11-27T14:40:53.184Z,88.01
2022-11-27T14:43:25.844Z,87.66
2022-11-27T14:45:56.436Z,88.50
2022-11-27T14:48:25.599Z,88.14
2022-11-27T14:50:56.795Z,88.52
2022-11-27T14:53:27.601Z,88.66
2022-11-27T14:55:58.855Z,88.73
2022-11-27T14:58:28.788Z,88.16
2022-11-27T15:01:00.175Z,88.20
2022-11-27T15:03:28.264Z,88.56
2022-11-27T15:05:59.901Z,88.21
2022-11-27T15:08:29.288Z,88.72
2022-11-27T15:10:58.704Z,88.06
2022-11-27T15:13:29.164Z,88.89
2022-11-27T15:16:04.416Z,88.81
2022-11-27T15:18:35.026Z,87.80
2022-11-27T15:21:11.169Z,88.47
2022-11-27T15:23:39.423Z,88.52
2022-11-27T15:26:16.054Z,87.47
2022-11-27T15:28:52.542Z,87.89
2022-11-27T15:31:30.525Z,88.50
2022-11-27T15:34:01.258Z,87.44
2022-11-27T15:36:36.007Z,87.76
2022-11-27T15:39:19.650Z,88.71
2022-11-27T15:41:56.048Z,88.24
2022-11-27T15:44:24.564Z,88.39
2022-11-27T15:46:52.821Z,88.43
2022-11-27T15:49:20.661Z,87.47
2022-11-27T15:51:50.166Z,87.75
2022-11-27T15:54:18.071Z,87.67
2022-11-27T15:56:46.789Z,88.34
2022-11-27T15:59:14.800Z,88.00
2022-11-27T16:01:42.798Z,87.45
2022-11-27T16:04:10.554Z,87.32
2022-11-27T16:06:38.724Z,88.01
2022-11-27T16:09:07.601Z,86.58
2022-11-27T16:11:35.631Z,87.30
2022-11-27T16:14:03.295Z,87.04
2022-11-27T16:16:31.174Z,86.88
2022-11-27T16:19:00.781Z,87.22
2022-11-27T16:21:30.166Z,87.04
2022-11-27T16:23:59.721Z,87.13
2022-11-27T16:26:29.475Z,87.33
2022-11-27T16:28:57.212Z,87.26
2022-11-27T16:31:25.667Z,86.87
2022-11-27T16:33:53.613Z,87.15
2022-11-27T16:36:22.575Z,87.32
2022-11-27T16:38:52.197Z,87.04
2022-11-27T16:41:20.357Z,87.27
2022-11-27T16:43:49.820Z,85.42
2022-11-27T16:46:19.322Z,86.70
2022-11-27T16:48:49.323Z,86.64
2022-11-27T16:51:19.441Z,87.26
2022-11-27T16:53:49.199Z,86.84
2022-11-27T16:56:19.907Z,86.87
2022-11-27T16:58:49.617Z,86.14
2022-11-27T17:01:19.999Z,86.91
2022-11-27T17:03:47.971Z,87.07
2022-11-27T17:06:17.926Z,87.47
2022-11-27T17:08:45.750Z,87.38
2022-11-27T17:11:17.205Z,86.58
2022-11-27T17:13:45.625Z,86.91
2022-11-27T17:16:15.107Z,86.64
2022-11-27T17:18:45.473Z,86.84
2022-11-27T17:21:16.794Z,87.51
2022-11-27T17:23:46.681Z,87.75
2022-11-27T17:26:17.260Z,87.90
2022-11-27T17:28:45.304Z,87.17
2022-11-27T17:31:17.564Z,87.53
2022-11-27T17:33:45.873Z,86.83
2022-11-27T17:36:14.246Z,87.07
2022-11-27T17:38:41.965Z,86.15
2022-11-27T17:41:11.718Z,86.74
2022-11-27T17:43:40.791Z,87.19
2022-11-27T17:46:09.413Z,87.78
2022-11-27T17:48:38.751Z,87.34
2022-11-27T17:51:08.013Z,87.40
2022-11-27T17:53:35.915Z,87.60
2022-11-27T17:56:04.440Z,87.60
2022-11-27T17:58:32.677Z,87.96
2022-11-27T18:01:01.079Z,86.92
2022-11-27T18:03:29.375Z,87.66
2022-11-27T18:06:02.643Z,87.89
2022-11-27T18:08:30.362Z,88.45
2022-11-27T18:10:58.306Z,87.99
2022-11-27T18:13:32.319Z,88.37
2022-11-27T18:16:05.226Z,88.63
2022-11-27T18:18:32.944Z,88.19
2022-11-27T18:21:08.641Z,88.77
2022-11-27T18:23:49.617Z,89.68
2022-11-27T18:26:45.425Z,89.73
2022-11-27T18:29:13.895Z,89.90
2022-11-27T18:31:41.717Z,89.60
2022-11-27T18:34:09.379Z,89.57
2022-11-27T18:36:38.374Z,89.90
2022-11-27T18:39:06.115Z,89.83
2022-11-27T18:41:34.675Z,90.23
2022-11-27T18:44:02.389Z,90.22
2022-11-27T18:46:30.156Z,91.00
2022-11-27T18:48:57.888Z,90.61
2022-11-27T18:51:26.591Z,90.94
2022-11-27T18:53:56.531Z,90.53
2022-11-27T18:56:26.375Z,90.77
2022-11-27T18:58:54.872Z,91.24
2022-11-27T19:01:24.935Z,91.28
2022-11-27T19:03:52.875Z,90.78
2022-11-27T19:06:22.613Z,90.94
2022-11-27T19:08:50.729Z,91.33
2022-11-27T19:11:21.727Z,91.76
2022-11-27T19:13:49.793Z,91.96
2022-11-27T19:16:20.501Z,91.68
2022-11-27T19:18:48.256Z,91.40
2022-11-27T19:21:18.305Z,91.84
2022-11-27T19:23:46.231Z,91.16
2022-11-27T19:26:16.550Z,91.26
2022-11-27T19:28:45.823Z,91.62
2022-11-27T19:31:15.677Z,91.50
2022-11-27T19:33:44.117Z,91.92
2022-11-27T19:36:13.633Z,92.10
2022-11-27T19:38:43.383Z,92.86
2022-11-27T19:41:11.867Z,91.91
2022-11-27T19:43:39.596Z,91.46
2022-11-27T19:46:16.245Z,92.30
2022-11-27T19:48:44.672Z,91.82
2022-11-27T19:51:12.946Z,92.33
2022-11-27T19:53:41.065Z,93.64
2022-11-27T19:56:09.928Z,92.60
2022-11-27T19:58:39.065Z,92.10
2022-11-27T20:01:08.362Z,92.42
2022-11-27T20:03:38.244Z,92.12
2022-11-27T20:06:08.284Z,92.81
2022-11-27T20:08:35.992Z,92.33
2022-11-27T20:11:05.448Z,92.22
2022-11-27T20:13:33.184Z,92.22
2022-11-27T20:16:00.884Z,92.07
2022-11-27T20:18:28.928Z,92.19
2022-11-27T20:21:06.517Z,92.14
2022-11-27T20:23:34.412Z,93.20
2022-11-27T20:26:05.096Z,93.34
2022-11-27T20:28:33.406Z,93.30
2022-11-27T20:31:02.942Z,94.37
2022-11-27T20:33:31.268Z,93.74
2022-11-27T20:35:59.473Z,93.04
2022-11-27T20:38:28.407Z,93.80
2022-11-27T20:40:56.145Z,93.12
2022-11-27T20:43:23.953Z,92.96
2022-11-27T20:45:53.420Z,92.50
2022-11-27T20:48:21.086Z,92.66
2022-11-27T20:50:51.281Z,92.80
2022-11-27T20:53:19.610Z,92.68
2022-11-27T20:55:48.927Z,93.10
2022-11-27T20:58:16.552Z,92.54
2022-11-27T21:00:44.259Z,93.05
2022-11-27T21:03:11.888Z,92.95
2022-11-27T21:05:44.185Z,92.69
2022-11-27T21:08:11.816Z,92.95
2022-11-27T21:10:39.463Z,92.46
2022-11-27T21:13:08.449Z,92.66
2022-11-27T21:15:36.108Z,93.02
2022-11-27T21:18:03.737Z,92.80
2022-11-27T21:20:31.982Z,92.71
2022-11-27T21:22:59.430Z,94.15
2022-11-27T21:25:27.377Z,93.50
2022-11-27T21:27:57.929Z,93.62
2022-11-27T21:30:27.095Z,93.24
2022-11-27T21:32:54.760Z,93.79
2022-11-27T21:35:22.424Z,93.75
2022-11-27T21:37:50.043Z,93.83
2022-11-27T21:40:17.790Z,92.95
2022-11-27T21:42:45.450Z,92.97
2022-11-27T21:45:13.106Z,93.90
2022-11-27T21:47:42.126Z,93.74
2022-11-27T21:50:11.610Z,93.52
2022-11-27T21:52:39.274Z,93.71
2022-11-27T21:55:11.827Z,93.99
2022-11-27T21:57:40.173Z,93.71
2022-11-27T22:00:09.297Z,93.60
2022-11-27T22:02:36.969Z,93.27
2022-11-27T22:05:06.911Z,93.78
2022-11-27T22:07:35.695Z,94.26
2022-11-27T22:10:03.410Z,93.83
2022-11-27T22:12:31.269Z,93.44
2022-11-27T22:14:58.912Z,94.00
2022-11-27T22:17:26.754Z,93.94
2022-11-27T22:19:54.434Z,93.41
2022-11-27T22:22:23.493Z,94.21
2022-11-27T22:24:51.172Z,94.12
2022-11-27T22:27:18.855Z,93.40
2022-11-27T22:29:46.542Z,93.61
2022-11-27T22:32:14.141Z,93.33
2022-11-27T22:34:42.019Z,93.51
2022-11-27T22:37:09.768Z,93.61
2022-11-27T22:39:38.730Z,93.56
2022-11-27T22:42:06.404Z,93.44
2022-11-27T22:44:34.023Z,93.38
2022-11-27T22:47:01.789Z,93.57
2022-11-27T22:49:29.459Z,92.92
2022-11-27T22:51:57.095Z,92.72
2022-11-27T22:54:24.917Z,93.39
2022-11-27T22:56:53.915Z,93.49
2022-11-27T22:59:32.141Z,93.37
2022-11-27T23:02:00.823Z,93.06
2022-11-27T23:04:28.535Z,93.98
2022-11-27T23:06:56.124Z,93.24
2022-11-27T23:09:24.056Z,92.99
2022-11-27T23:11:52.116Z,92.88
2022-11-27T23:14:21.158Z,93.25
2022-11-27T23:16:48.843Z,93.24
2022-11-27T23:19:16.582Z,92.73
2022-11-27T23:21:44.335Z,93.48
2022-11-27T23:24:15.129Z,93.59
2022-11-27T23:26:43.012Z,93.62
2022-11-27T23:29:10.719Z,93.39
2022-11-27T23:31:39.860Z,93.11
2022-11-27T23:34:11.572Z,93.84
2022-11-27T23:36:39.544Z,93.68
2022-11-27T23:39:09.794Z,93.57
2022-11-27T23:41:37.500Z,93.90
2022-11-27T23:44:05.191Z,94.16
2022-11-27T23:46:32.940Z,93.75
2022-11-27T23:49:01.915Z,94.48
2022-11-27T23:51:32.744Z,94.50
2022-11-27T23:54:01.207Z,94.26
2022-11-27T23:56:30.982Z,93.91
2022-11-27T23:59:00.121Z,94.45
